Terminal Aerodrome Forecast
Issued by NWS Wilmington, NC

Home | Current Version | Previous Version | Text Only | Print | Product List | Glossary On
Versions: 1 2 3 4 5 6 7 8 9 10 11 12 13 14
859
FTUS42 KILM 121730
TAFLBT
TAF
KLBT 121730Z 1218/1318 04008KT 6SM -RA SCT015 OVC035
      TEMPO 1218/1220 5SM -FZRAPL BKN015
     FM122000 34005KT P6SM OVC020
     FM130100 29004KT P6SM OVC025
     FM131200 32006KT P6SM SKC
     FM131500 34014G24KT P6SM SKC=

USA.gov is the U.S. government's official web portal to all federal, state and local government web resources and services.